sensor_id;sensor_type;location;lat;lon;timestamp;P1;durP1;ratioP1;P2;durP2;ratioP2
6985;SDS011;3533;51.246;6.850;2022-10-16T00:01:33;1.20;;;1.10;;
6985;SDS011;3533;51.246;6.850;2022-10-16T00:03:59;2.00;;;1.40;;
6985;SDS011;3533;51.246;6.850;2022-10-16T00:06:26;1.50;;;1.40;;
6985;SDS011;3533;51.246;6.850;2022-10-16T00:08:52;1.20;;;1.10;;
6985;SDS011;3533;51.246;6.850;2022-10-16T00:13:46;1.83;;;1.47;;
6985;SDS011;3533;51.246;6.850;2022-10-16T00:16:13;2.23;;;1.30;;
6985;SDS011;3533;51.246;6.850;2022-10-16T00:18:39;1.30;;;1.20;;
6985;SDS011;3533;51.246;6.850;2022-10-16T00:21:06;1.30;;;1.20;;
6985;SDS011;3533;51.246;6.850;2022-10-16T00:23:37;1.53;;;1.10;;
6985;SDS011;3533;51.246;6.850;2022-10-16T00:26:04;1.27;;;1.17;;
6985;SDS011;3533;51.246;6.850;2022-10-16T00:28:33;1.43;;;1.30;;
6985;SDS011;3533;51.246;6.850;2022-10-16T00:30:59;1.30;;;1.20;;
6985;SDS011;3533;51.246;6.850;2022-10-16T00:33:28;1.43;;;1.33;;
6985;SDS011;3533;51.246;6.850;2022-10-16T00:35:54;1.30;;;1.20;;
6985;SDS011;3533;51.246;6.850;2022-10-16T00:38:23;1.23;;;1.10;;
6985;SDS011;3533;51.246;6.850;2022-10-16T00:40:49;2.33;;;1.17;;
6985;SDS011;3533;51.246;6.850;2022-10-16T00:43:32;1.20;;;1.10;;
6985;SDS011;3533;51.246;6.850;2022-10-16T00:45:58;1.43;;;1.30;;
6985;SDS011;3533;51.246;6.850;2022-10-16T00:48:24;1.40;;;1.30;;
6985;SDS011;3533;51.246;6.850;2022-10-16T00:50:49;1.40;;;1.30;;
6985;SDS011;3533;51.246;6.850;2022-10-16T00:53:16;1.50;;;1.30;;
6985;SDS011;3533;51.246;6.850;2022-10-16T00:55:42;1.43;;;1.33;;
6985;SDS011;3533;51.246;6.850;2022-10-16T00:58:07;2.10;;;1.30;;
6985;SDS011;3533;51.246;6.850;2022-10-16T01:00:34;1.20;;;1.10;;
6985;SDS011;3533;51.246;6.850;2022-10-16T01:03:00;1.53;;;1.37;;
6985;SDS011;3533;51.246;6.850;2022-10-16T01:05:35;2.47;;;1.30;;
6985;SDS011;3533;51.246;6.850;2022-10-16T01:08:12;1.53;;;1.20;;
6985;SDS011;3533;51.246;6.850;2022-10-16T01:10:57;1.90;;;1.20;;
6985;SDS011;3533;51.246;6.850;2022-10-16T01:13:30;1.20;;;1.10;;
6985;SDS011;3533;51.246;6.850;2022-10-16T01:16:07;1.27;;;1.17;;
6985;SDS011;3533;51.246;6.850;2022-10-16T01:18:54;1.30;;;1.20;;
6985;SDS011;3533;51.246;6.850;2022-10-16T01:21:38;2.10;;;1.13;;
6985;SDS011;3533;51.246;6.850;2022-10-16T01:29:36;1.80;;;1.40;;
6985;SDS011;3533;51.246;6.850;2022-10-16T01:32:12;1.50;;;1.10;;
6985;SDS011;3533;51.246;6.850;2022-10-16T01:34:49;1.30;;;1.20;;
6985;SDS011;3533;51.246;6.850;2022-10-16T01:37:20;1.10;;;1.00;;
6985;SDS011;3533;51.246;6.850;2022-10-16T01:39:54;1.57;;;1.07;;
6985;SDS011;3533;51.246;6.850;2022-10-16T01:42:24;1.23;;;1.10;;
6985;SDS011;3533;51.246;6.850;2022-10-16T01:44:55;1.40;;;1.10;;
6985;SDS011;3533;51.246;6.850;2022-10-16T01:47:23;1.17;;;1.07;;
6985;SDS011;3533;51.246;6.850;2022-10-16T01:49:51;1.23;;;1.13;;
6985;SDS011;3533;51.246;6.850;2022-10-16T01:52:20;1.30;;;1.20;;
6985;SDS011;3533;51.246;6.850;2022-10-16T01:54:49;1.47;;;1.30;;
6985;SDS011;3533;51.246;6.850;2022-10-16T01:57:17;1.73;;;1.20;;
6985;SDS011;3533;51.246;6.850;2022-10-16T01:59:44;1.30;;;1.20;;
6985;SDS011;3533;51.246;6.850;2022-10-16T02:02:14;1.20;;;1.10;;
6985;SDS011;3533;51.246;6.850;2022-10-16T02:07:45;1.10;;;1.00;;
6985;SDS011;3533;51.246;6.850;2022-10-16T02:10:12;1.73;;;1.17;;
6985;SDS011;3533;51.246;6.850;2022-10-16T02:12:38;1.23;;;1.13;;
6985;SDS011;3533;51.246;6.850;2022-10-16T02:15:08;1.20;;;1.10;;
6985;SDS011;3533;51.246;6.850;2022-10-16T02:17:34;1.07;;;0.97;;
6985;SDS011;3533;51.246;6.850;2022-10-16T02:20:00;1.20;;;1.10;;
6985;SDS011;3533;51.246;6.850;2022-10-16T02:22:27;1.17;;;1.07;;
6985;SDS011;3533;51.246;6.850;2022-10-16T02:27:55;1.00;;;0.90;;
6985;SDS011;3533;51.246;6.850;2022-10-16T02:32:58;1.40;;;1.10;;
6985;SDS011;3533;51.246;6.850;2022-10-16T02:35:26;1.07;;;0.93;;
6985;SDS011;3533;51.246;6.850;2022-10-16T02:37:53;1.50;;;1.40;;
6985;SDS011;3533;51.246;6.850;2022-10-16T02:40:20;1.20;;;1.10;;
6985;SDS011;3533;51.246;6.850;2022-10-16T02:42:49;0.97;;;0.90;;
6985;SDS011;3533;51.246;6.850;2022-10-16T02:45:19;1.10;;;0.90;;
6985;SDS011;3533;51.246;6.850;2022-10-16T02:47:45;1.10;;;1.00;;
6985;SDS011;3533;51.246;6.850;2022-10-16T02:50:11;1.17;;;1.07;;
6985;SDS011;3533;51.246;6.850;2022-10-16T02:52:36;1.10;;;1.00;;
6985;SDS011;3533;51.246;6.850;2022-10-16T02:55:02;1.10;;;1.00;;
6985;SDS011;3533;51.246;6.850;2022-10-16T02:57:28;1.17;;;1.07;;
6985;SDS011;3533;51.246;6.850;2022-10-16T02:59:53;1.10;;;1.00;;
6985;SDS011;3533;51.246;6.850;2022-10-16T03:02:19;1.40;;;1.30;;
6985;SDS011;3533;51.246;6.850;2022-10-16T03:04:44;1.20;;;1.10;;
6985;SDS011;3533;51.246;6.850;2022-10-16T03:07:10;0.97;;;0.87;;
6985;SDS011;3533;51.246;6.850;2022-10-16T03:09:35;1.07;;;0.97;;
6985;SDS011;3533;51.246;6.850;2022-10-16T03:12:01;1.10;;;1.00;;
6985;SDS011;3533;51.246;6.850;2022-10-16T03:14:27;0.90;;;0.90;;
6985;SDS011;3533;51.246;6.850;2022-10-16T03:16:52;1.03;;;0.93;;
6985;SDS011;3533;51.246;6.850;2022-10-16T03:19:18;1.33;;;1.00;;
6985;SDS011;3533;51.246;6.850;2022-10-16T03:21:44;3.00;;;1.40;;
6985;SDS011;3533;51.246;6.850;2022-10-16T03:24:10;0.97;;;0.87;;
6985;SDS011;3533;51.246;6.850;2022-10-16T03:26:36;1.10;;;1.00;;
6985;SDS011;3533;51.246;6.850;2022-10-16T03:29:01;2.00;;;1.73;;
6985;SDS011;3533;51.246;6.850;2022-10-16T03:31:28;1.00;;;0.90;;
6985;SDS011;3533;51.246;6.850;2022-10-16T03:33:54;1.17;;;1.07;;
6985;SDS011;3533;51.246;6.850;2022-10-16T03:36:19;1.27;;;1.17;;
6985;SDS011;3533;51.246;6.850;2022-10-16T03:38:45;1.10;;;1.00;;
6985;SDS011;3533;51.246;6.850;2022-10-16T03:41:10;0.93;;;0.93;;
6985;SDS011;3533;51.246;6.850;2022-10-16T03:43:36;1.20;;;1.10;;
6985;SDS011;3533;51.246;6.850;2022-10-16T03:46:01;1.03;;;1.00;;
6985;SDS011;3533;51.246;6.850;2022-10-16T03:48:27;1.10;;;1.00;;
6985;SDS011;3533;51.246;6.850;2022-10-16T03:50:52;1.10;;;1.00;;
6985;SDS011;3533;51.246;6.850;2022-10-16T03:53:18;0.97;;;0.87;;
6985;SDS011;3533;51.246;6.850;2022-10-16T03:55:44;1.30;;;1.10;;
6985;SDS011;3533;51.246;6.850;2022-10-16T03:58:10;1.27;;;1.17;;
6985;SDS011;3533;51.246;6.850;2022-10-16T04:00:39;1.10;;;1.00;;
6985;SDS011;3533;51.246;6.850;2022-10-16T04:03:05;1.13;;;1.03;;
6985;SDS011;3533;51.246;6.850;2022-10-16T04:05:31;1.10;;;1.00;;
6985;SDS011;3533;51.246;6.850;2022-10-16T04:07:56;1.07;;;0.97;;
6985;SDS011;3533;51.246;6.850;2022-10-16T04:10:22;1.03;;;0.93;;
6985;SDS011;3533;51.246;6.850;2022-10-16T04:12:47;1.17;;;0.80;;
6985;SDS011;3533;51.246;6.850;2022-10-16T04:15:13;1.10;;;0.90;;
6985;SDS011;3533;51.246;6.850;2022-10-16T04:17:38;1.53;;;1.43;;
6985;SDS011;3533;51.246;6.850;2022-10-16T04:20:04;1.73;;;1.10;;
6985;SDS011;3533;51.246;6.850;2022-10-16T04:22:30;1.83;;;0.90;;
6985;SDS011;3533;51.246;6.850;2022-10-16T04:24:56;0.80;;;0.80;;
6985;SDS011;3533;51.246;6.850;2022-10-16T04:27:21;0.97;;;0.87;;
6985;SDS011;3533;51.246;6.850;2022-10-16T04:29:47;0.90;;;0.80;;
6985;SDS011;3533;51.246;6.850;2022-10-16T04:32:12;1.47;;;1.10;;
6985;SDS011;3533;51.246;6.850;2022-10-16T04:34:39;1.07;;;0.90;;
6985;SDS011;3533;51.246;6.850;2022-10-16T04:37:05;1.10;;;1.00;;
6985;SDS011;3533;51.246;6.850;2022-10-16T04:39:30;0.83;;;0.83;;
6985;SDS011;3533;51.246;6.850;2022-10-16T04:41:56;0.90;;;0.90;;
6985;SDS011;3533;51.246;6.850;2022-10-16T04:44:21;1.20;;;0.90;;
6985;SDS011;3533;51.246;6.850;2022-10-16T04:46:47;1.17;;;1.07;;
6985;SDS011;3533;51.246;6.850;2022-10-16T04:49:15;1.50;;;0.93;;
6985;SDS011;3533;51.246;6.850;2022-10-16T04:51:41;0.90;;;0.90;;
6985;SDS011;3533;51.246;6.850;2022-10-16T04:54:06;1.10;;;0.90;;
6985;SDS011;3533;51.246;6.850;2022-10-16T04:56:33;1.17;;;0.93;;
6985;SDS011;3533;51.246;6.850;2022-10-16T04:59:04;1.13;;;0.90;;
6985;SDS011;3533;51.246;6.850;2022-10-16T05:01:30;1.00;;;0.90;;
6985;SDS011;3533;51.246;6.850;2022-10-16T05:03:56;1.00;;;0.90;;
6985;SDS011;3533;51.246;6.850;2022-10-16T05:06:21;1.20;;;1.00;;
6985;SDS011;3533;51.246;6.850;2022-10-16T05:08:47;1.17;;;1.03;;
6985;SDS011;3533;51.246;6.850;2022-10-16T05:11:12;1.00;;;0.90;;
6985;SDS011;3533;51.246;6.850;2022-10-16T05:13:38;0.80;;;0.80;;
6985;SDS011;3533;51.246;6.850;2022-10-16T05:16:03;1.10;;;0.90;;
6985;SDS011;3533;51.246;6.850;2022-10-16T05:18:29;1.10;;;1.00;;
6985;SDS011;3533;51.246;6.850;2022-10-16T05:20:55;25.77;;;2.63;;
6985;SDS011;3533;51.246;6.850;2022-10-16T05:23:20;1.30;;;1.00;;
6985;SDS011;3533;51.246;6.850;2022-10-16T05:25:52;0.80;;;0.80;;
6985;SDS011;3533;51.246;6.850;2022-10-16T05:28:19;1.00;;;0.90;;
6985;SDS011;3533;51.246;6.850;2022-10-16T05:30:45;0.90;;;0.80;;
6985;SDS011;3533;51.246;6.850;2022-10-16T05:33:10;1.10;;;1.00;;
6985;SDS011;3533;51.246;6.850;2022-10-16T05:35:36;0.90;;;0.80;;
6985;SDS011;3533;51.246;6.850;2022-10-16T05:38:01;0.70;;;0.70;;
6985;SDS011;3533;51.246;6.850;2022-10-16T05:40:27;0.90;;;0.80;;
6985;SDS011;3533;51.246;6.850;2022-10-16T05:42:56;0.80;;;0.80;;
6985;SDS011;3533;51.246;6.850;2022-10-16T05:45:21;1.00;;;0.90;;
6985;SDS011;3533;51.246;6.850;2022-10-16T05:47:47;1.00;;;0.80;;
6985;SDS011;3533;51.246;6.850;2022-10-16T05:50:12;1.10;;;1.00;;
6985;SDS011;3533;51.246;6.850;2022-10-16T05:52:38;1.07;;;0.90;;
6985;SDS011;3533;51.246;6.850;2022-10-16T05:55:03;1.30;;;1.20;;
6985;SDS011;3533;51.246;6.850;2022-10-16T05:57:29;0.87;;;0.80;;
6985;SDS011;3533;51.246;6.850;2022-10-16T05:59:55;0.80;;;0.80;;
6985;SDS011;3533;51.246;6.850;2022-10-16T06:02:21;3.00;;;0.90;;
6985;SDS011;3533;51.246;6.850;2022-10-16T06:04:46;0.90;;;0.90;;
6985;SDS011;3533;51.246;6.850;2022-10-16T06:07:12;1.30;;;0.90;;
6985;SDS011;3533;51.246;6.850;2022-10-16T06:09:37;1.20;;;1.10;;
6985;SDS011;3533;51.246;6.850;2022-10-16T06:12:03;1.30;;;0.83;;
6985;SDS011;3533;51.246;6.850;2022-10-16T06:14:28;1.57;;;0.93;;
6985;SDS011;3533;51.246;6.850;2022-10-16T06:16:54;1.07;;;0.97;;
6985;SDS011;3533;51.246;6.850;2022-10-16T06:19:20;1.00;;;0.80;;
6985;SDS011;3533;51.246;6.850;2022-10-16T06:21:45;1.07;;;0.97;;
6985;SDS011;3533;51.246;6.850;2022-10-16T06:24:11;1.00;;;0.90;;
6985;SDS011;3533;51.246;6.850;2022-10-16T06:26:36;0.90;;;0.80;;
6985;SDS011;3533;51.246;6.850;2022-10-16T06:29:03;1.07;;;1.00;;
6985;SDS011;3533;51.246;6.850;2022-10-16T06:31:29;1.07;;;0.80;;
6985;SDS011;3533;51.246;6.850;2022-10-16T06:33:56;2.50;;;1.93;;
6985;SDS011;3533;51.246;6.850;2022-10-16T06:36:22;1.10;;;1.00;;
6985;SDS011;3533;51.246;6.850;2022-10-16T06:38:48;1.57;;;1.20;;
6985;SDS011;3533;51.246;6.850;2022-10-16T06:41:15;1.10;;;0.93;;
6985;SDS011;3533;51.246;6.850;2022-10-16T06:43:42;1.00;;;0.90;;
6985;SDS011;3533;51.246;6.850;2022-10-16T06:46:11;0.80;;;0.80;;
6985;SDS011;3533;51.246;6.850;2022-10-16T06:48:38;1.30;;;0.87;;
6985;SDS011;3533;51.246;6.850;2022-10-16T06:51:14;2.10;;;1.00;;
6985;SDS011;3533;51.246;6.850;2022-10-16T06:53:44;1.27;;;0.90;;
6985;SDS011;3533;51.246;6.850;2022-10-16T06:56:15;2.80;;;1.10;;
6985;SDS011;3533;51.246;6.850;2022-10-16T06:58:44;1.83;;;1.00;;
6985;SDS011;3533;51.246;6.850;2022-10-16T07:01:10;1.10;;;1.00;;
6985;SDS011;3533;51.246;6.850;2022-10-16T07:03:36;1.10;;;0.93;;
6985;SDS011;3533;51.246;6.850;2022-10-16T07:06:03;1.33;;;1.00;;
6985;SDS011;3533;51.246;6.850;2022-10-16T07:08:30;1.50;;;0.83;;
6985;SDS011;3533;51.246;6.850;2022-10-16T07:10:58;1.23;;;0.80;;
6985;SDS011;3533;51.246;6.850;2022-10-16T07:13:24;1.00;;;0.80;;
6985;SDS011;3533;51.246;6.850;2022-10-16T07:15:50;1.33;;;1.13;;
6985;SDS011;3533;51.246;6.850;2022-10-16T07:18:15;1.20;;;1.10;;
6985;SDS011;3533;51.246;6.850;2022-10-16T07:20:41;1.30;;;0.93;;
6985;SDS011;3533;51.246;6.850;2022-10-16T07:23:06;1.70;;;1.43;;
6985;SDS011;3533;51.246;6.850;2022-10-16T07:25:32;3.03;;;0.77;;
6985;SDS011;3533;51.246;6.850;2022-10-16T07:27:57;2.00;;;0.90;;
6985;SDS011;3533;51.246;6.850;2022-10-16T07:30:23;1.83;;;0.90;;
6985;SDS011;3533;51.246;6.850;2022-10-16T07:32:48;1.37;;;1.00;;
6985;SDS011;3533;51.246;6.850;2022-10-16T07:35:14;3.00;;;1.50;;
6985;SDS011;3533;51.246;6.850;2022-10-16T07:37:43;1.10;;;0.90;;
6985;SDS011;3533;51.246;6.850;2022-10-16T07:40:10;1.00;;;0.90;;
6985;SDS011;3533;51.246;6.850;2022-10-16T07:42:35;2.00;;;0.90;;
6985;SDS011;3533;51.246;6.850;2022-10-16T07:45:01;1.10;;;1.00;;
6985;SDS011;3533;51.246;6.850;2022-10-16T07:47:27;1.90;;;1.00;;
6985;SDS011;3533;51.246;6.850;2022-10-16T07:49:52;1.10;;;1.00;;
6985;SDS011;3533;51.246;6.850;2022-10-16T07:52:18;2.30;;;1.00;;
6985;SDS011;3533;51.246;6.850;2022-10-16T07:54:43;2.10;;;0.90;;
6985;SDS011;3533;51.246;6.850;2022-10-16T07:57:09;1.00;;;0.90;;
6985;SDS011;3533;51.246;6.850;2022-10-16T07:59:34;2.20;;;1.20;;
6985;SDS011;3533;51.246;6.850;2022-10-16T08:02:00;2.40;;;1.00;;
6985;SDS011;3533;51.246;6.850;2022-10-16T08:04:25;2.13;;;0.93;;
6985;SDS011;3533;51.246;6.850;2022-10-16T08:06:51;1.10;;;1.00;;
6985;SDS011;3533;51.246;6.850;2022-10-16T08:09:16;1.20;;;1.00;;
6985;SDS011;3533;51.246;6.850;2022-10-16T08:11:42;1.00;;;0.90;;
6985;SDS011;3533;51.246;6.850;2022-10-16T08:14:07;1.07;;;0.90;;
6985;SDS011;3533;51.246;6.850;2022-10-16T08:16:33;1.33;;;1.23;;
6985;SDS011;3533;51.246;6.850;2022-10-16T08:18:58;1.00;;;0.90;;
6985;SDS011;3533;51.246;6.850;2022-10-16T08:21:24;1.07;;;0.80;;
6985;SDS011;3533;51.246;6.850;2022-10-16T08:23:50;1.00;;;0.90;;
6985;SDS011;3533;51.246;6.850;2022-10-16T08:26:16;0.83;;;0.80;;
6985;SDS011;3533;51.246;6.850;2022-10-16T08:28:41;0.90;;;0.90;;
6985;SDS011;3533;51.246;6.850;2022-10-16T08:31:16;0.97;;;0.90;;
6985;SDS011;3533;51.246;6.850;2022-10-16T08:33:43;1.47;;;0.90;;
6985;SDS011;3533;51.246;6.850;2022-10-16T08:36:11;1.00;;;0.87;;
6985;SDS011;3533;51.246;6.850;2022-10-16T08:38:37;1.47;;;0.90;;
6985;SDS011;3533;51.246;6.850;2022-10-16T08:43:44;1.30;;;1.00;;
6985;SDS011;3533;51.246;6.850;2022-10-16T08:46:17;3.20;;;1.10;;
6985;SDS011;3533;51.246;6.850;2022-10-16T08:48:50;1.90;;;1.30;;
6985;SDS011;3533;51.246;6.850;2022-10-16T08:51:19;1.20;;;0.97;;
6985;SDS011;3533;51.246;6.850;2022-10-16T08:53:54;1.67;;;0.90;;
6985;SDS011;3533;51.246;6.850;2022-10-16T08:56:22;1.00;;;0.90;;
6985;SDS011;3533;51.246;6.850;2022-10-16T08:58:48;0.90;;;0.90;;
6985;SDS011;3533;51.246;6.850;2022-10-16T09:01:15;1.10;;;1.00;;
6985;SDS011;3533;51.246;6.850;2022-10-16T09:11:53;0.87;;;0.87;;
6985;SDS011;3533;51.246;6.850;2022-10-16T09:22:29;1.23;;;1.00;;
6985;SDS011;3533;51.246;6.850;2022-10-16T09:24:59;0.73;;;0.70;;
6985;SDS011;3533;51.246;6.850;2022-10-16T09:27:34;2.00;;;1.50;;
6985;SDS011;3533;51.246;6.850;2022-10-16T09:30:00;0.80;;;0.70;;
6985;SDS011;3533;51.246;6.850;2022-10-16T09:32:26;1.60;;;0.90;;
6985;SDS011;3533;51.246;6.850;2022-10-16T09:34:54;1.00;;;0.90;;
6985;SDS011;3533;51.246;6.850;2022-10-16T09:37:23;0.97;;;0.93;;
6985;SDS011;3533;51.246;6.850;2022-10-16T09:39:51;1.00;;;0.90;;
6985;SDS011;3533;51.246;6.850;2022-10-16T09:42:22;1.30;;;0.80;;
6985;SDS011;3533;51.246;6.850;2022-10-16T09:44:55;1.30;;;0.80;;
6985;SDS011;3533;51.246;6.850;2022-10-16T09:47:28;2.30;;;0.90;;
6985;SDS011;3533;51.246;6.850;2022-10-16T09:49:56;1.00;;;0.90;;
6985;SDS011;3533;51.246;6.850;2022-10-16T09:52:26;0.80;;;0.80;;
6985;SDS011;3533;51.246;6.850;2022-10-16T09:54:53;0.83;;;0.80;;
6985;SDS011;3533;51.246;6.850;2022-10-16T09:57:20;1.20;;;0.80;;
6985;SDS011;3533;51.246;6.850;2022-10-16T09:59:53;1.30;;;1.00;;
6985;SDS011;3533;51.246;6.850;2022-10-16T10:02:36;1.20;;;1.10;;
6985;SDS011;3533;51.246;6.850;2022-10-16T10:05:05;1.30;;;1.20;;
6985;SDS011;3533;51.246;6.850;2022-10-16T10:07:44;1.03;;;0.90;;
6985;SDS011;3533;51.246;6.850;2022-10-16T10:10:22;0.83;;;0.83;;
6985;SDS011;3533;51.246;6.850;2022-10-16T10:12:49;1.73;;;1.10;;
6985;SDS011;3533;51.246;6.850;2022-10-16T10:15:15;1.57;;;0.90;;
6985;SDS011;3533;51.246;6.850;2022-10-16T10:17:47;0.80;;;0.70;;
6985;SDS011;3533;51.246;6.850;2022-10-16T10:20:21;0.80;;;0.70;;
6985;SDS011;3533;51.246;6.850;2022-10-16T10:22:47;1.10;;;1.00;;
6985;SDS011;3533;51.246;6.850;2022-10-16T10:30:44;1.00;;;0.90;;
6985;SDS011;3533;51.246;6.850;2022-10-16T10:33:39;1.20;;;0.80;;
6985;SDS011;3533;51.246;6.850;2022-10-16T10:39:35;3.13;;;0.90;;
6985;SDS011;3533;51.246;6.850;2022-10-16T10:42:12;1.07;;;0.97;;
6985;SDS011;3533;51.246;6.850;2022-10-16T10:53:11;0.93;;;0.83;;
6985;SDS011;3533;51.246;6.850;2022-10-16T10:56:14;0.90;;;0.80;;
6985;SDS011;3533;51.246;6.850;2022-10-16T11:01:26;1.00;;;0.90;;
6985;SDS011;3533;51.246;6.850;2022-10-16T11:04:12;1.07;;;1.00;;
6985;SDS011;3533;51.246;6.850;2022-10-16T11:06:46;1.20;;;0.90;;
6985;SDS011;3533;51.246;6.850;2022-10-16T11:09:40;0.80;;;0.77;;
6985;SDS011;3533;51.246;6.850;2022-10-16T11:12:12;0.90;;;0.90;;
6985;SDS011;3533;51.246;6.850;2022-10-16T11:14:56;0.70;;;0.70;;
6985;SDS011;3533;51.246;6.850;2022-10-16T11:17:52;1.73;;;0.80;;
6985;SDS011;3533;51.246;6.850;2022-10-16T11:20:28;0.90;;;0.80;;
6985;SDS011;3533;51.246;6.850;2022-10-16T11:23:04;0.90;;;0.90;;
6985;SDS011;3533;51.246;6.850;2022-10-16T11:25:46;0.90;;;0.80;;
6985;SDS011;3533;51.246;6.850;2022-10-16T11:28:37;1.40;;;0.80;;
6985;SDS011;3533;51.246;6.850;2022-10-16T11:36:43;1.00;;;0.87;;
6985;SDS011;3533;51.246;6.850;2022-10-16T11:41:49;1.10;;;0.90;;
6985;SDS011;3533;51.246;6.850;2022-10-16T11:44:27;1.37;;;0.90;;
6985;SDS011;3533;51.246;6.850;2022-10-16T11:49:30;0.97;;;0.87;;
6985;SDS011;3533;51.246;6.850;2022-10-16T11:55:01;2.03;;;1.00;;
6985;SDS011;3533;51.246;6.850;2022-10-16T11:57:42;1.63;;;0.90;;
6985;SDS011;3533;51.246;6.850;2022-10-16T12:02:55;3.13;;;0.90;;
6985;SDS011;3533;51.246;6.850;2022-10-16T12:05:50;0.83;;;0.80;;
6985;SDS011;3533;51.246;6.850;2022-10-16T12:08:33;1.57;;;0.90;;
6985;SDS011;3533;51.246;6.850;2022-10-16T12:16:32;2.50;;;1.03;;
6985;SDS011;3533;51.246;6.850;2022-10-16T12:19:13;2.40;;;1.00;;
6985;SDS011;3533;51.246;6.850;2022-10-16T12:21:41;1.00;;;0.90;;
6985;SDS011;3533;51.246;6.850;2022-10-16T12:26:58;2.70;;;1.00;;
6985;SDS011;3533;51.246;6.850;2022-10-16T12:29:37;1.30;;;0.90;;
6985;SDS011;3533;51.246;6.850;2022-10-16T12:32:05;1.10;;;0.90;;
6985;SDS011;3533;51.246;6.850;2022-10-16T12:34:55;1.20;;;1.07;;
6985;SDS011;3533;51.246;6.850;2022-10-16T12:37:26;1.27;;;0.80;;
6985;SDS011;3533;51.246;6.850;2022-10-16T12:39:59;1.00;;;0.83;;
6985;SDS011;3533;51.246;6.850;2022-10-16T12:42:36;1.27;;;0.97;;
6985;SDS011;3533;51.246;6.850;2022-10-16T12:45:02;2.60;;;1.10;;
6985;SDS011;3533;51.246;6.850;2022-10-16T12:47:50;1.00;;;0.90;;
6985;SDS011;3533;51.246;6.850;2022-10-16T12:50:27;1.37;;;1.00;;
6985;SDS011;3533;51.246;6.850;2022-10-16T12:52:56;1.10;;;1.00;;
6985;SDS011;3533;51.246;6.850;2022-10-16T12:55:22;2.93;;;1.00;;
6985;SDS011;3533;51.246;6.850;2022-10-16T12:58:00;1.40;;;1.00;;
6985;SDS011;3533;51.246;6.850;2022-10-16T13:16:51;14.13;;;3.50;;
6985;SDS011;3533;51.246;6.850;2022-10-16T13:26:13;2.50;;;2.07;;
6985;SDS011;3533;51.246;6.850;2022-10-16T13:28:46;7.30;;;2.50;;
6985;SDS011;3533;51.246;6.850;2022-10-16T13:31:14;9.57;;;3.77;;
6985;SDS011;3533;51.246;6.850;2022-10-16T13:33:45;7.80;;;2.80;;
6985;SDS011;3533;51.246;6.850;2022-10-16T13:38:58;12.57;;;3.20;;
6985;SDS011;3533;51.246;6.850;2022-10-16T13:41:31;15.57;;;2.83;;
6985;SDS011;3533;51.246;6.850;2022-10-16T13:43:56;15.63;;;3.00;;
6985;SDS011;3533;51.246;6.850;2022-10-16T13:46:23;11.60;;;2.90;;
6985;SDS011;3533;51.246;6.850;2022-10-16T13:49:03;19.30;;;2.73;;
6985;SDS011;3533;51.246;6.850;2022-10-16T13:51:30;19.27;;;3.90;;
6985;SDS011;3533;51.246;6.850;2022-10-16T13:53:57;10.57;;;2.90;;
6985;SDS011;3533;51.246;6.850;2022-10-16T13:56:27;13.37;;;2.57;;
6985;SDS011;3533;51.246;6.850;2022-10-16T13:59:01;11.90;;;2.57;;
6985;SDS011;3533;51.246;6.850;2022-10-16T14:01:48;11.80;;;2.30;;
6985;SDS011;3533;51.246;6.850;2022-10-16T14:04:15;11.17;;;2.23;;
6985;SDS011;3533;51.246;6.850;2022-10-16T14:06:41;6.47;;;2.10;;
6985;SDS011;3533;51.246;6.850;2022-10-16T14:09:14;11.50;;;2.13;;
6985;SDS011;3533;51.246;6.850;2022-10-16T14:11:52;8.33;;;2.60;;
6985;SDS011;3533;51.246;6.850;2022-10-16T14:14:20;10.63;;;1.77;;
6985;SDS011;3533;51.246;6.850;2022-10-16T14:16:47;2.33;;;1.73;;
6985;SDS011;3533;51.246;6.850;2022-10-16T14:19:24;4.20;;;2.13;;
6985;SDS011;3533;51.246;6.850;2022-10-16T14:21:52;3.90;;;1.50;;
6985;SDS011;3533;51.246;6.850;2022-10-16T14:24:31;2.63;;;2.00;;
6985;SDS011;3533;51.246;6.850;2022-10-16T14:26:59;2.50;;;1.53;;
6985;SDS011;3533;51.246;6.850;2022-10-16T14:29:26;3.77;;;1.93;;
6985;SDS011;3533;51.246;6.850;2022-10-16T14:32:04;6.63;;;2.03;;
6985;SDS011;3533;51.246;6.850;2022-10-16T14:34:32;5.00;;;1.93;;
6985;SDS011;3533;51.246;6.850;2022-10-16T14:37:06;2.93;;;1.90;;
6985;SDS011;3533;51.246;6.850;2022-10-16T14:39:33;1.80;;;1.40;;
6985;SDS011;3533;51.246;6.850;2022-10-16T14:41:59;2.70;;;1.80;;
6985;SDS011;3533;51.246;6.850;2022-10-16T14:44:33;3.13;;;1.30;;
6985;SDS011;3533;51.246;6.850;2022-10-16T14:49:54;6.03;;;1.70;;
6985;SDS011;3533;51.246;6.850;2022-10-16T14:52:22;1.70;;;1.40;;
6985;SDS011;3533;51.246;6.850;2022-10-16T14:54:48;3.77;;;1.30;;
6985;SDS011;3533;51.246;6.850;2022-10-16T14:57:18;4.57;;;1.60;;
6985;SDS011;3533;51.246;6.850;2022-10-16T14:59:48;2.10;;;1.30;;
6985;SDS011;3533;51.246;6.850;2022-10-16T15:04:58;3.50;;;1.40;;
6985;SDS011;3533;51.246;6.850;2022-10-16T15:07:38;3.20;;;1.53;;
6985;SDS011;3533;51.246;6.850;2022-10-16T15:10:04;1.77;;;1.40;;
6985;SDS011;3533;51.246;6.850;2022-10-16T15:12:30;2.07;;;1.30;;
6985;SDS011;3533;51.246;6.850;2022-10-16T15:14:55;11.13;;;2.13;;
6985;SDS011;3533;51.246;6.850;2022-10-16T15:17:21;2.87;;;1.40;;
6985;SDS011;3533;51.246;6.850;2022-10-16T15:19:47;1.80;;;1.37;;
6985;SDS011;3533;51.246;6.850;2022-10-16T15:22:12;1.67;;;1.40;;
6985;SDS011;3533;51.246;6.850;2022-10-16T15:24:38;2.10;;;1.40;;
6985;SDS011;3533;51.246;6.850;2022-10-16T15:27:03;1.83;;;1.50;;
6985;SDS011;3533;51.246;6.850;2022-10-16T15:29:29;1.40;;;1.30;;
6985;SDS011;3533;51.246;6.850;2022-10-16T15:31:54;1.73;;;1.40;;
6985;SDS011;3533;51.246;6.850;2022-10-16T15:34:20;1.23;;;1.00;;
6985;SDS011;3533;51.246;6.850;2022-10-16T15:36:45;1.30;;;1.00;;
6985;SDS011;3533;51.246;6.850;2022-10-16T15:39:15;1.30;;;1.20;;
6985;SDS011;3533;51.246;6.850;2022-10-16T15:41:42;1.70;;;1.30;;
6985;SDS011;3533;51.246;6.850;2022-10-16T15:44:09;1.27;;;1.10;;
6985;SDS011;3533;51.246;6.850;2022-10-16T15:46:35;1.30;;;1.20;;
6985;SDS011;3533;51.246;6.850;2022-10-16T15:49:02;1.40;;;1.20;;
6985;SDS011;3533;51.246;6.850;2022-10-16T15:51:28;1.30;;;1.00;;
6985;SDS011;3533;51.246;6.850;2022-10-16T15:53:57;1.33;;;1.20;;
6985;SDS011;3533;51.246;6.850;2022-10-16T15:56:23;2.90;;;1.20;;
6985;SDS011;3533;51.246;6.850;2022-10-16T15:58:50;3.70;;;1.47;;
6985;SDS011;3533;51.246;6.850;2022-10-16T16:01:16;1.33;;;1.23;;
6985;SDS011;3533;51.246;6.850;2022-10-16T16:03:42;1.80;;;1.00;;
6985;SDS011;3533;51.246;6.850;2022-10-16T16:06:10;2.23;;;1.20;;
6985;SDS011;3533;51.246;6.850;2022-10-16T16:08:37;1.27;;;1.17;;
6985;SDS011;3533;51.246;6.850;2022-10-16T16:11:04;1.40;;;1.30;;
6985;SDS011;3533;51.246;6.850;2022-10-16T16:13:37;1.40;;;1.30;;
6985;SDS011;3533;51.246;6.850;2022-10-16T16:16:10;1.90;;;1.40;;
6985;SDS011;3533;51.246;6.850;2022-10-16T16:18:37;1.30;;;1.20;;
6985;SDS011;3533;51.246;6.850;2022-10-16T16:21:04;1.43;;;1.33;;
6985;SDS011;3533;51.246;6.850;2022-10-16T16:23:30;2.30;;;1.03;;
6985;SDS011;3533;51.246;6.850;2022-10-16T16:26:07;2.77;;;1.40;;
6985;SDS011;3533;51.246;6.850;2022-10-16T16:28:46;1.83;;;1.20;;
6985;SDS011;3533;51.246;6.850;2022-10-16T16:31:12;1.43;;;1.13;;
6985;SDS011;3533;51.246;6.850;2022-10-16T16:33:37;1.30;;;1.20;;
6985;SDS011;3533;51.246;6.850;2022-10-16T16:36:04;7.33;;;1.07;;
6985;SDS011;3533;51.246;6.850;2022-10-16T16:38:31;1.97;;;1.30;;
6985;SDS011;3533;51.246;6.850;2022-10-16T16:40:57;1.50;;;1.40;;
6985;SDS011;3533;51.246;6.850;2022-10-16T16:43:23;1.80;;;1.10;;
6985;SDS011;3533;51.246;6.850;2022-10-16T16:45:50;2.60;;;1.20;;
6985;SDS011;3533;51.246;6.850;2022-10-16T16:48:16;1.40;;;1.30;;
6985;SDS011;3533;51.246;6.850;2022-10-16T16:50:42;1.20;;;1.10;;
6985;SDS011;3533;51.246;6.850;2022-10-16T16:53:07;1.20;;;1.10;;
6985;SDS011;3533;51.246;6.850;2022-10-16T16:55:33;1.30;;;1.20;;
6985;SDS011;3533;51.246;6.850;2022-10-16T16:57:58;2.13;;;1.40;;
6985;SDS011;3533;51.246;6.850;2022-10-16T17:00:25;1.30;;;1.20;;
6985;SDS011;3533;51.246;6.850;2022-10-16T17:02:50;3.40;;;1.37;;
6985;SDS011;3533;51.246;6.850;2022-10-16T17:05:16;1.20;;;1.10;;
6985;SDS011;3533;51.246;6.850;2022-10-16T17:07:42;1.27;;;1.17;;
6985;SDS011;3533;51.246;6.850;2022-10-16T17:10:08;1.20;;;1.10;;
6985;SDS011;3533;51.246;6.850;2022-10-16T17:12:34;1.87;;;1.10;;
6985;SDS011;3533;51.246;6.850;2022-10-16T17:15:00;1.10;;;1.00;;
6985;SDS011;3533;51.246;6.850;2022-10-16T17:17:26;1.57;;;1.23;;